Time;durP1;ratioP1;P1;durP2;ratioP2;P2;SDS_P1;SDS_P2;PMS_P1;PMS_P2;Temp;Humidity;BMP_temperature;BMP_pressure;BME280_temperature;BME280_humidity;BME280_pressure;Samples;Min_cycle;Max_cycle;Signal;HPM_P1;HPM_P2
2022/10/08 00:01:34;;;;;;;;;;;17.50;99.90;;;;;;5078292;28;19934;-80
2022/10/08 00:04:02;;;;;;;;;;;17.40;99.90;;;;;;5077921;28;20282;-81
2022/10/08 00:06:36;;;;;;;;;;;17.50;99.90;;;;;;5078181;28;19913;-81
2022/10/08 00:09:17;;;;;;;;;;;17.50;99.90;;;;;;5082665;28;19913;-79
2022/10/08 00:11:49;;;;;;;;;;;17.50;99.90;;;;;;5078525;28;19916;-80
2022/10/08 00:14:17;;;;;;;;;;;17.50;99.90;;;;;;5078807;28;19912;-81
2022/10/08 00:16:46;;;;;;;;;;;17.50;99.90;;;;;;5080597;28;19956;-80
2022/10/08 00:19:15;;;;;;;;;;;17.50;99.90;;;;;;5087477;28;19909;-80
2022/10/08 00:21:45;;;;;;;;;;;17.50;99.90;;;;;;5081299;28;19916;-80
2022/10/08 00:24:15;;;;;;;;;;;17.50;99.90;;;;;;5081141;28;19927;-80
2022/10/08 00:26:41;;;;;;;;;;;17.60;99.90;;;;;;5064526;28;19975;-81
2022/10/08 00:29:13;;;;;;;;;;;17.60;99.90;;;;;;5083049;28;20123;-80
2022/10/08 00:31:51;;;;;;;;;;;;;;;;;;;;;
2022/10/08 00:34:27;;;;;;;;;;;17.60;99.90;;;;;;5083026;28;20017;-80
2022/10/08 00:36:53;;;;;;;;;;;17.70;99.90;;;;;;5087599;28;19927;-80
2022/10/08 00:39:20;;;;;;;;;;;17.80;99.90;;;;;;5069142;28;19924;-81
2022/10/08 00:41:47;;;;;;;;;;;17.80;99.90;;;;;;5081543;28;19923;-82
2022/10/08 00:44:31;;;;;;;;;;;17.70;99.90;;;;;;5080778;28;19955;-80
2022/10/08 00:46:57;;;;;;;;;;;17.80;99.90;;;;;;5078778;28;19912;-80
2022/10/08 00:49:24;;;;;;;;;;;17.80;99.90;;;;;;5080831;28;20005;-80
2022/10/08 00:51:53;;;;;;;;;;;17.80;99.90;;;;;;5081051;28;20092;-81
2022/10/08 00:54:22;;;;;;;;;;;17.80;99.90;;;;;;5080898;28;19922;-80
2022/10/08 00:56:50;;;;;;;;;;;17.80;99.90;;;;;;5081748;28;19916;-79
2022/10/08 00:59:16;;;;;;;;;;;17.80;99.90;;;;;;5079706;28;19951;-80
2022/10/08 01:01:42;;;;;;;;;;;17.80;99.90;;;;;;5086403;28;19912;-80
2022/10/08 01:04:09;;;;;;;;;;;17.80;99.90;;;;;;5067055;28;19912;-80
2022/10/08 01:06:46;;;;;;;;;;;17.70;99.90;;;;;;5081504;28;19912;-80
2022/10/08 01:09:20;;;;;;;;;;;17.70;99.90;;;;;;5080309;28;19925;-81
2022/10/08 01:12:01;;;;;;;;;;;17.70;99.90;;;;;;5079035;28;19920;-80
2022/10/08 01:14:46;;;;;;;;;;;17.60;99.90;;;;;;5061900;28;19913;-80
2022/10/08 01:17:15;;;;;;;;;;;17.60;99.90;;;;;;5079373;28;19960;-80
2022/10/08 01:19:51;;;;;;;;;;;17.70;99.90;;;;;;5084972;28;19913;-80
2022/10/08 01:22:49;;;;;;;;;;;17.70;99.90;;;;;;5081663;28;19962;-80
2022/10/08 01:25:34;;;;;;;;;;;17.60;99.90;;;;;;5087722;28;19912;-81
2022/10/08 01:28:18;;;;;;;;;;;17.70;99.90;;;;;;5088765;28;19988;-81
2022/10/08 01:30:49;;;;;;;;;;;17.70;99.90;;;;;;5085824;28;19940;-81
2022/10/08 01:33:18;;;;;;;;;;;17.70;99.90;;;;;;5086102;28;19919;-80
2022/10/08 01:35:47;;;;;;;;;;;17.80;99.90;;;;;;5080764;28;19996;-80
2022/10/08 01:38:50;;;;;;;;;;;17.80;99.90;;;;;;5066162;28;19920;-79
2022/10/08 01:41:40;;;;;;;;;;;17.80;99.90;;;;;;5078476;28;19913;-81
2022/10/08 01:44:51;;;;;;;;;;;;;;;;;;;;;
2022/10/08 01:50:53;;;;;;;;;;;17.60;99.90;;;;;;5008232;28;19949;-81
2022/10/08 01:53:20;;;;;;;;;;;17.40;99.90;;;;;;5018730;28;20306;-80
2022/10/08 01:55:52;;;;;;;;;;;17.30;99.90;;;;;;5066428;28;19935;-80
2022/10/08 01:58:24;;;;;;;;;;;17.30;99.90;;;;;;5080809;28;19909;-81
2022/10/08 02:00:51;;;;;;;;;;;17.20;99.90;;;;;;5087478;28;19982;-80
2022/10/08 02:03:29;;;;;;;;;;;17.20;99.90;;;;;;5081540;28;20325;-82
2022/10/08 02:06:03;;;;;;;;;;;17.30;99.90;;;;;;5065259;28;19986;-80
2022/10/08 02:08:29;;;;;;;;;;;17.20;99.90;;;;;;5081829;28;19913;-80
2022/10/08 02:10:55;;;;;;;;;;;17.10;99.90;;;;;;5061877;28;19917;-80
2022/10/08 02:13:24;;;;;;;;;;;17.10;99.90;;;;;;5080827;28;20453;-82
2022/10/08 02:16:05;;;;;;;;;;;17.10;99.90;;;;;;5078988;28;19936;-81
2022/10/08 02:18:44;;;;;;;;;;;17.10;99.90;;;;;;5085034;28;19938;-81
2022/10/08 02:21:25;;;;;;;;;;;17.10;99.90;;;;;;5069789;28;19924;-81
2022/10/08 02:24:14;;;;;;;;;;;17.20;99.90;;;;;;5081306;28;19952;-81
2022/10/08 02:26:52;;;;;;;;;;;17.10;99.90;;;;;;5074791;28;20452;-80
2022/10/08 02:33:03;;;;;;;;;;;17.00;99.90;;;;;;5072419;28;19915;-81
2022/10/08 02:36:16;;;;;;;;;;;17.00;99.90;;;;;;5076802;28;19917;-80
2022/10/08 02:38:56;;;;;;;;;;;16.90;99.90;;;;;;5018923;28;20193;-80
2022/10/08 02:41:27;;;;;;;;;;;17.00;99.90;;;;;;5038038;28;19912;-80
2022/10/08 02:43:57;;;;;;;;;;;17.00;99.90;;;;;;5078046;28;19924;-80
2022/10/08 02:46:31;;;;;;;;;;;16.90;99.90;;;;;;5080971;28;19908;-81
2022/10/08 02:49:00;;;;;;;;;;;16.80;99.90;;;;;;5077092;28;20416;-81
2022/10/08 02:51:27;;;;;;;;;;;16.70;99.90;;;;;;5063274;28;20005;-80
2022/10/08 02:54:22;;;;;;;;;;;16.70;99.90;;;;;;5078638;28;19917;-80
2022/10/08 02:57:00;;;;;;;;;;;16.60;99.90;;;;;;5074597;28;19939;-81
2022/10/08 02:59:26;;;;;;;;;;;16.60;99.90;;;;;;5084735;28;19912;-82
2022/10/08 03:02:02;;;;;;;;;;;16.60;99.90;;;;;;5079864;28;19916;-81
2022/10/08 03:04:31;;;;;;;;;;;16.60;99.90;;;;;;5062399;28;20300;-82
2022/10/08 03:07:14;;;;;;;;;;;;;;;;;;;;;
2022/10/08 03:09:47;;;;;;;;;;;16.50;99.90;;;;;;5076507;28;20162;-81
2022/10/08 03:12:18;;;;;;;;;;;16.50;99.90;;;;;;5081344;28;19921;-81
2022/10/08 03:14:51;;;;;;;;;;;16.60;99.90;;;;;;5082089;28;19920;-81
2022/10/08 03:17:20;;;;;;;;;;;16.60;99.90;;;;;;5075095;28;19935;-80
2022/10/08 03:19:59;;;;;;;;;;;16.60;99.90;;;;;;5078449;28;19921;-80
2022/10/08 03:22:29;;;;;;;;;;;16.60;99.90;;;;;;5085294;28;19924;-80
2022/10/08 03:24:55;;;;;;;;;;;16.60;99.90;;;;;;5087066;28;19962;-80
2022/10/08 03:27:21;;;;;;;;;;;16.60;99.90;;;;;;5079526;28;19912;-80
2022/10/08 03:29:57;;;;;;;;;;;16.60;99.90;;;;;;5076556;28;19921;-82
2022/10/08 03:32:23;;;;;;;;;;;16.60;99.90;;;;;;5080570;28;19924;-80
2022/10/08 03:34:49;;;;;;;;;;;16.60;99.90;;;;;;5081827;28;20289;-81
2022/10/08 03:37:21;;;;;;;;;;;16.60;99.90;;;;;;5078673;28;20440;-80
2022/10/08 03:39:47;;;;;;;;;;;16.70;99.90;;;;;;5083278;28;19912;-80
2022/10/08 03:42:13;;;;;;;;;;;16.60;99.90;;;;;;5082753;28;19923;-80
2022/10/08 03:44:41;;;;;;;;;;;16.60;99.90;;;;;;5082469;28;19917;-81
2022/10/08 03:47:07;;;;;;;;;;;16.70;99.90;;;;;;5080905;28;19908;-80
2022/10/08 03:49:33;;;;;;;;;;;16.70;99.90;;;;;;5083140;28;19917;-81
2022/10/08 03:52:02;;;;;;;;;;;16.70;99.90;;;;;;5081887;28;19919;-82
2022/10/08 03:54:28;;;;;;;;;;;16.80;99.90;;;;;;5081941;28;19916;-81
2022/10/08 03:56:56;;;;;;;;;;;16.80;99.90;;;;;;5081196;28;19923;-81
2022/10/08 03:59:25;;;;;;;;;;;16.80;99.90;;;;;;5065162;28;19939;-80
2022/10/08 04:01:51;;;;;;;;;;;16.80;99.90;;;;;;5080042;28;19913;-80
2022/10/08 04:04:17;;;;;;;;;;;16.70;99.90;;;;;;5086932;28;20218;-79
2022/10/08 04:06:43;;;;;;;;;;;16.70;99.90;;;;;;5088772;28;19923;-80
2022/10/08 04:09:11;;;;;;;;;;;16.60;99.90;;;;;;5088711;28;19908;-80
2022/10/08 04:11:37;;;;;;;;;;;16.60;99.90;;;;;;5086722;28;19935;-80
2022/10/08 04:14:26;;;;;;;;;;;16.60;99.90;;;;;;5089438;28;19916;-80
2022/10/08 04:16:52;;;;;;;;;;;16.50;99.90;;;;;;5086665;28;19917;-81
2022/10/08 04:19:41;;;;;;;;;;;16.50;99.90;;;;;;5070248;28;19913;-81
2022/10/08 04:22:12;;;;;;;;;;;16.40;99.90;;;;;;5068230;28;19920;-80
2022/10/08 04:24:40;;;;;;;;;;;16.50;99.90;;;;;;5071754;28;19908;-80
2022/10/08 04:27:09;;;;;;;;;;;16.50;99.90;;;;;;5088951;28;19935;-80
2022/10/08 04:29:38;;;;;;;;;;;16.40;99.90;;;;;;5071671;28;19908;-80
2022/10/08 04:32:06;;;;;;;;;;;16.40;99.90;;;;;;5071403;28;19923;-80
2022/10/08 04:34:50;;;;;;;;;;;16.40;99.90;;;;;;5088115;28;20195;-81
2022/10/08 04:37:19;;;;;;;;;;;16.40;99.90;;;;;;5076364;28;19927;-80
2022/10/08 04:39:57;;;;;;;;;;;16.50;99.90;;;;;;5081604;28;20015;-80
2022/10/08 04:42:23;;;;;;;;;;;16.50;99.90;;;;;;5086145;28;19927;-82
2022/10/08 04:44:52;;;;;;;;;;;16.50;99.90;;;;;;5087410;28;19992;-80
2022/10/08 04:47:18;;;;;;;;;;;16.40;99.90;;;;;;5068380;28;19909;-80
2022/10/08 04:49:47;;;;;;;;;;;16.40;99.90;;;;;;5071155;28;19955;-81
2022/10/08 04:52:58;;;;;;;;;;;16.30;99.90;;;;;;5085236;28;19917;-80
2022/10/08 04:55:07;;;;;;;;;;;16.30;99.90;;;;;;5072398;28;19984;-80
2022/10/08 04:57:44;;;;;;;;;;;16.30;99.90;;;;;;5088303;28;19931;-81
2022/10/08 05:00:13;;;;;;;;;;;16.30;99.90;;;;;;5087952;28;19955;-81
2022/10/08 05:05:40;;;;;;;;;;;16.20;99.90;;;;;;5071917;28;19962;-81
2022/10/08 05:08:06;;;;;;;;;;;16.20;99.90;;;;;;5090801;28;19919;-81
2022/10/08 05:13:38;;;;;;;;;;;16.20;99.90;;;;;;5012440;28;19924;-81
2022/10/08 05:16:08;;;;;;;;;;;16.20;99.90;;;;;;5088891;28;19921;-81
2022/10/08 05:18:38;;;;;;;;;;;16.20;99.90;;;;;;5088791;28;20012;-80
2022/10/08 05:21:24;;;;;;;;;;;16.30;99.90;;;;;;5089964;28;19916;-80
2022/10/08 05:23:56;;;;;;;;;;;16.40;99.90;;;;;;5087958;28;19912;-80
2022/10/08 05:26:26;;;;;;;;;;;16.40;99.90;;;;;;5090402;28;19913;-80
2022/10/08 05:29:01;;;;;;;;;;;16.40;99.90;;;;;;5089327;28;19922;-80
2022/10/08 05:31:36;;;;;;;;;;;16.50;99.90;;;;;;5104708;28;20175;-80
2022/10/08 05:37:32;;;;;;;;;;;16.40;99.90;;;;;;5028081;28;19929;-81
2022/10/08 05:40:00;;;;;;;;;;;16.50;99.90;;;;;;5025840;28;19922;-81
2022/10/08 05:42:26;;;;;;;;;;;16.50;99.90;;;;;;5067425;28;20266;-80
2022/10/08 05:44:58;;;;;;;;;;;16.50;99.90;;;;;;5089268;28;19919;-80
2022/10/08 05:47:26;;;;;;;;;;;16.60;99.90;;;;;;5104476;28;19981;-80
2022/10/08 05:49:52;;;;;;;;;;;16.60;99.90;;;;;;5103369;28;19912;-80
2022/10/08 05:52:44;;;;;;;;;;;16.70;99.90;;;;;;5088297;28;19936;-82
2022/10/08 05:55:10;;;;;;;;;;;16.70;99.90;;;;;;5061504;28;19976;-79
2022/10/08 05:58:00;;;;;;;;;;;16.80;99.90;;;;;;5065032;28;19921;-80
2022/10/08 06:00:26;;;;;;;;;;;16.90;99.90;;;;;;5074639;28;19919;-80
2022/10/08 06:02:52;;;;;;;;;;;16.90;99.90;;;;;;5084654;28;19931;-79
2022/10/08 06:05:23;;;;;;;;;;;16.90;99.90;;;;;;5089112;28;19904;-81
2022/10/08 06:07:51;;;;;;;;;;;17.00;99.90;;;;;;5081922;28;19919;-72
2022/10/08 06:10:17;;;;;;;;;;;17.00;99.90;;;;;;5070001;28;19912;-73
2022/10/08 06:12:43;;;;;;;;;;;17.00;99.90;;;;;;5073657;28;19928;-73
2022/10/08 06:15:09;;;;;;;;;;;17.00;99.90;;;;;;5072427;28;19954;-72
2022/10/08 06:17:34;;;;;;;;;;;17.00;99.90;;;;;;5065519;28;19920;-72
2022/10/08 06:20:00;;;;;;;;;;;17.00;99.90;;;;;;5065988;28;19919;-72
2022/10/08 06:22:26;;;;;;;;;;;17.20;99.90;;;;;;5065856;28;19919;-72
2022/10/08 06:24:52;;;;;;;;;;;17.20;99.90;;;;;;5065595;28;20019;-72
2022/10/08 06:27:41;;;;;;;;;;;17.30;99.90;;;;;;5070378;28;19973;-75
2022/10/08 06:30:10;;;;;;;;;;;17.40;99.90;;;;;;5053942;28;19920;-73
2022/10/08 06:32:36;;;;;;;;;;;17.60;99.90;;;;;;5063904;28;19913;-73
2022/10/08 06:35:02;;;;;;;;;;;17.70;99.90;;;;;;5069321;28;19938;-73
2022/10/08 06:37:27;;;;;;;;;;;17.70;99.90;;;;;;5066807;28;20358;-73
2022/10/08 06:39:53;;;;;;;;;;;17.80;99.90;;;;;;5065705;28;19935;-74
2022/10/08 06:42:19;;;;;;;;;;;17.80;99.90;;;;;;5064926;28;20516;-72
2022/10/08 06:44:45;;;;;;;;;;;17.90;99.90;;;;;;5067556;28;19969;-74
2022/10/08 06:47:10;;;;;;;;;;;18.00;99.90;;;;;;5049484;28;19912;-73
2022/10/08 06:49:36;;;;;;;;;;;17.90;99.90;;;;;;5064077;28;19920;-74
2022/10/08 06:52:02;;;;;;;;;;;18.00;99.90;;;;;;5063932;28;20086;-73
2022/10/08 06:54:27;;;;;;;;;;;18.00;99.90;;;;;;5065293;28;20443;-71
2022/10/08 06:56:54;;;;;;;;;;;18.20;99.90;;;;;;5046335;28;19912;-76
2022/10/08 06:59:35;;;;;;;;;;;18.70;99.90;;;;;;5081573;28;19928;-76
2022/10/08 07:02:04;;;;;;;;;;;19.00;99.90;;;;;;5071892;28;20366;-77
2022/10/08 07:04:29;;;;;;;;;;;19.20;99.90;;;;;;5072924;28;19909;-77
2022/10/08 07:06:55;;;;;;;;;;;19.50;99.90;;;;;;5054055;28;19935;-77
2022/10/08 07:09:28;;;;;;;;;;;19.60;99.90;;;;;;5053920;28;19962;-77
2022/10/08 07:11:54;;;;;;;;;;;19.90;99.90;;;;;;5076489;28;19912;-77
2022/10/08 07:14:20;;;;;;;;;;;20.00;99.90;;;;;;5076631;28;19919;-76
2022/10/08 07:16:46;;;;;;;;;;;20.20;99.90;;;;;;5056361;28;19912;-77
2022/10/08 07:19:11;;;;;;;;;;;20.20;99.90;;;;;;5076626;28;20403;-77
2022/10/08 07:21:37;;;;;;;;;;;20.30;99.90;;;;;;5072831;28;19932;-77
2022/10/08 07:24:04;;;;;;;;;;;20.40;99.90;;;;;;5075636;28;19913;-77
2022/10/08 07:26:31;;;;;;;;;;;20.60;99.90;;;;;;5076297;28;20064;-77
2022/10/08 07:28:59;;;;;;;;;;;20.70;99.90;;;;;;5074561;28;19908;-77
2022/10/08 07:31:26;;;;;;;;;;;20.80;99.90;;;;;;5074906;28;19912;-77
2022/10/08 07:33:52;;;;;;;;;;;20.90;99.90;;;;;;5075241;28;19916;-77
2022/10/08 07:36:21;;;;;;;;;;;20.90;99.90;;;;;;5074839;28;19908;-77
2022/10/08 07:38:47;;;;;;;;;;;21.00;99.90;;;;;;5075874;28;19928;-77
2022/10/08 07:41:13;;;;;;;;;;;21.20;99.90;;;;;;5075626;28;19913;-76
2022/10/08 07:43:40;;;;;;;;;;;21.30;99.90;;;;;;5075832;28;19921;-77
2022/10/08 07:46:06;;;;;;;;;;;21.50;99.90;;;;;;5091711;28;19909;-77
2022/10/08 07:48:32;;;;;;;;;;;21.60;99.90;;;;;;5075904;28;19913;-77
2022/10/08 07:51:11;;;;;;;;;;;21.70;99.90;;;;;;5076589;28;19919;-77
2022/10/08 07:53:37;;;;;;;;;;;21.70;99.90;;;;;;5058524;28;19920;-77
2022/10/08 07:56:22;;;;;;;;;;;;;;;;;;;;;
2022/10/08 07:59:14;;;;;;;;;;;22.00;99.90;;;;;;5073032;28;19930;-78
2022/10/08 08:02:03;;;;;;;;;;;;;;;;;;;;;
2022/10/08 08:04:29;;;;;;;;;;;22.10;99.90;;;;;;5075642;28;19917;-77
2022/10/08 08:06:55;;;;;;;;;;;22.00;99.90;;;;;;5074474;28;19952;-77
2022/10/08 08:09:21;;;;;;;;;;;21.90;99.90;;;;;;5072432;28;19913;-78
2022/10/08 08:11:47;;;;;;;;;;;21.90;99.90;;;;;;5091152;28;20532;-78
2022/10/08 08:17:07;;;;;;;;;;;22.10;99.90;;;;;;5003032;28;19917;-77
2022/10/08 08:22:43;;;;;;;;;;;22.00;99.90;;;;;;4969926;28;19969;-77
2022/10/08 08:25:21;;;;;;;;;;;;;;;;;;;;;
2022/10/08 08:28:03;;;;;;;;;;;22.00;99.90;;;;;;5054717;28;19919;-77
2022/10/08 08:30:29;;;;;;;;;;;22.10;99.90;;;;;;5075696;28;19915;-77
2022/10/08 08:33:00;;;;;;;;;;;22.30;99.90;;;;;;5075724;28;19912;-77
2022/10/08 08:35:32;;;;;;;;;;;22.20;99.90;;;;;;5073858;28;19916;-78
2022/10/08 08:38:19;;;;;;;;;;;22.10;99.90;;;;;;5072327;28;19916;-78
2022/10/08 08:40:51;;;;;;;;;;;22.00;99.90;;;;;;5073007;28;19912;-78
2022/10/08 08:43:26;;;;;;;;;;;22.10;99.90;;;;;;5074362;28;19917;-77
2022/10/08 08:46:17;;;;;;;;;;;22.20;99.90;;;;;;5074580;28;19916;-77
2022/10/08 08:49:19;;;;;;;;;;;22.10;99.90;;;;;;5083858;28;19916;-78
2022/10/08 08:54:34;;;;;;;;;;;22.40;99.90;;;;;;5042520;28;20388;-77
2022/10/08 08:57:29;;;;;;;;;;;22.10;99.90;;;;;;5074741;28;19918;-77
2022/10/08 09:00:34;;;;;;;;;;;;;;;;;;;;;
2022/10/08 09:03:05;;;;;;;;;;;22.30;99.90;;;;;;5074401;28;19912;-77
2022/10/08 09:06:15;;;;;;;;;;;;;;;;;;;;;
2022/10/08 09:12:07;;;;;;;;;;;23.00;99.90;;;;;;5012673;28;19917;-77
2022/10/08 09:14:46;;;;;;;;;;;23.00;99.90;;;;;;5073670;28;19962;-77
2022/10/08 09:17:19;;;;;;;;;;;22.80;99.90;;;;;;5072029;28;19916;-78
2022/10/08 09:20:11;;;;;;;;;;;22.40;99.90;;;;;;5071995;28;19921;-77
2022/10/08 09:23:10;;;;;;;;;;;;;;;;;;;;;
2022/10/08 09:25:42;;;;;;;;;;;21.90;99.90;;;;;;5026130;28;19913;-77
2022/10/08 09:28:43;;;;;;;;;;;21.60;99.90;;;;;;5074378;28;19939;-77
2022/10/08 09:34:29;;;;;;;;;;;21.20;99.90;;;;;;5059711;28;19916;-77
2022/10/08 09:37:37;;;;;;;;;;;21.10;99.90;;;;;;5075015;28;20021;-77
2022/10/08 09:43:29;;;;;;;;;;;21.10;99.90;;;;;;5056218;28;19917;-78
2022/10/08 09:49:33;;;;;;;;;;;;;;;;;;;;;
2022/10/08 09:52:25;;;;;;;;;;;21.40;99.90;;;;;;5054178;28;19912;-78
2022/10/08 09:55:04;;;;;;;;;;;21.50;99.90;;;;;;5071101;28;19935;-77
2022/10/08 09:57:42;;;;;;;;;;;21.80;99.90;;;;;;5068745;28;19944;-78
2022/10/08 10:00:38;;;;;;;;;;;21.90;99.90;;;;;;5068930;28;19913;-78
2022/10/08 10:03:26;;;;;;;;;;;22.20;99.90;;;;;;5073280;28;19927;-78
2022/10/08 10:06:01;;;;;;;;;;;22.40;99.90;;;;;;5073231;28;19928;-77
2022/10/08 10:08:47;;;;;;;;;;;22.20;99.90;;;;;;5072847;28;19919;-77
2022/10/08 10:11:34;;;;;;;;;;;22.20;99.90;;;;;;5072724;28;19916;-77
2022/10/08 10:14:04;;;;;;;;;;;22.20;99.90;;;;;;5073847;28;19915;-77
2022/10/08 10:16:38;;;;;;;;;;;22.10;99.90;;;;;;5090722;28;19918;-78
2022/10/08 10:19:16;;;;;;;;;;;22.20;99.90;;;;;;5089081;28;19956;-77
2022/10/08 10:21:52;;;;;;;;;;;22.10;99.90;;;;;;5073938;28;20003;-77
2022/10/08 10:24:39;;;;;;;;;;;21.90;99.90;;;;;;5072279;28;20043;-78
2022/10/08 10:27:09;;;;;;;;;;;21.80;99.90;;;;;;5077847;28;19963;-75
2022/10/08 10:33:23;;;;;;;;;;;21.60;99.90;;;;;;5074390;28;19919;-75
2022/10/08 10:35:56;;;;;;;;;;;21.70;99.90;;;;;;5065297;28;19966;-76
2022/10/08 10:38:27;;;;;;;;;;;21.60;99.90;;;;;;5067688;28;19916;-75
2022/10/08 10:41:05;;;;;;;;;;;21.70;99.90;;;;;;5057247;28;19995;-76
2022/10/08 10:43:46;;;;;;;;;;;21.80;99.90;;;;;;5069970;28;19920;-76
2022/10/08 10:46:17;;;;;;;;;;;21.80;99.90;;;;;;5072025;28;19916;-75
2022/10/08 10:48:42;;;;;;;;;;;21.80;99.90;;;;;;5071809;28;20007;-75
2022/10/08 10:51:32;;;;;;;;;;;21.80;99.90;;;;;;5073257;28;19955;-74
2022/10/08 10:54:07;;;;;;;;;;;21.90;99.90;;;;;;5073432;28;19995;-75
2022/10/08 10:56:37;;;;;;;;;;;21.90;99.90;;;;;;5069005;28;19916;-75
2022/10/08 10:59:30;;;;;;;;;;;21.90;99.90;;;;;;5071264;28;19921;-75
2022/10/08 11:02:22;;;;;;;;;;;21.90;99.90;;;;;;5071682;28;20008;-75
2022/10/08 11:04:54;;;;;;;;;;;22.00;99.90;;;;;;5072426;28;19919;-74
2022/10/08 11:07:29;;;;;;;;;;;21.90;99.90;;;;;;5073710;28;19912;-75
2022/10/08 11:10:21;;;;;;;;;;;21.90;99.90;;;;;;5074078;28;19909;-75
2022/10/08 11:12:51;;;;;;;;;;;22.00;99.90;;;;;;5069327;28;19912;-74
2022/10/08 11:15:23;;;;;;;;;;;22.00;99.90;;;;;;5074251;28;20460;-74
2022/10/08 11:18:00;;;;;;;;;;;22.00;99.90;;;;;;5077564;28;19912;-74
2022/10/08 11:20:42;;;;;;;;;;;22.20;99.90;;;;;;5070688;28;19940;-75
2022/10/08 11:23:14;;;;;;;;;;;22.30;99.90;;;;;;5071165;28;21185;-74
2022/10/08 11:25:55;;;;;;;;;;;22.20;99.90;;;;;;5075274;28;19966;-75
2022/10/08 11:28:39;;;;;;;;;;;22.40;99.90;;;;;;5069315;28;19918;-74
2022/10/08 11:31:12;;;;;;;;;;;22.40;99.90;;;;;;5074717;28;20398;-74
2022/10/08 11:33:38;;;;;;;;;;;22.30;99.90;;;;;;5075378;28;19912;-75
2022/10/08 11:36:04;;;;;;;;;;;22.30;99.90;;;;;;5079911;28;20301;-74
2022/10/08 11:38:48;;;;;;;;;;;22.20;99.90;;;;;;5076058;28;19919;-75
2022/10/08 11:41:43;;;;;;;;;;;22.10;99.90;;;;;;5074179;28;20015;-75
2022/10/08 11:44:18;;;;;;;;;;;22.00;99.90;;;;;;5070159;28;19920;-73
2022/10/08 11:46:44;;;;;;;;;;;21.90;99.90;;;;;;5054952;28;20371;-74
2022/10/08 11:49:10;;;;;;;;;;;22.00;99.90;;;;;;5072338;28;20054;-75
2022/10/08 11:51:42;;;;;;;;;;;21.90;99.90;;;;;;5088739;28;20288;-74
2022/10/08 11:54:33;;;;;;;;;;;21.80;99.90;;;;;;5073278;28;19927;-74
2022/10/08 11:57:19;;;;;;;;;;;21.80;99.90;;;;;;5077916;28;19912;-76
2022/10/08 11:59:55;;;;;;;;;;;21.70;99.90;;;;;;5076089;28;19912;-77
2022/10/08 12:02:24;;;;;;;;;;;21.80;99.90;;;;;;5073134;28;19920;-75
2022/10/08 12:05:20;;;;;;;;;;;22.00;99.90;;;;;;5076560;28;19967;-74
2022/10/08 12:07:57;;;;;;;;;;;22.20;99.90;;;;;;5072173;28;19999;-77
2022/10/08 12:10:28;;;;;;;;;;;22.10;99.90;;;;;;5072041;28;20612;-75
2022/10/08 12:15:50;;;;;;;;;;;22.00;99.90;;;;;;5025544;28;19912;-76
2022/10/08 12:18:19;;;;;;;;;;;21.80;99.90;;;;;;5072808;28;19970;-75
2022/10/08 12:21:04;;;;;;;;;;;21.70;99.90;;;;;;5076191;28;20003;-75
2022/10/08 12:23:33;;;;;;;;;;;21.70;99.90;;;;;;5086280;28;19958;-75
2022/10/08 12:25:59;;;;;;;;;;;21.80;99.90;;;;;;5082619;28;19923;-79
2022/10/08 12:28:28;;;;;;;;;;;21.80;99.90;;;;;;5063394;28;20038;-79
2022/10/08 12:30:55;;;;;;;;;;;21.80;99.90;;;;;;5093326;28;19944;-79
2022/10/08 12:33:25;;;;;;;;;;;21.90;99.90;;;;;;5071379;28;19908;-80
2022/10/08 12:36:00;;;;;;;;;;;21.90;99.90;;;;;;5060104;28;19913;-78
2022/10/08 12:38:28;;;;;;;;;;;22.10;99.90;;;;;;5082028;28;19959;-79
2022/10/08 12:40:57;;;;;;;;;;;22.20;99.90;;;;;;5080480;28;19966;-79
2022/10/08 12:43:44;;;;;;;;;;;22.40;99.90;;;;;;5092103;28;19922;-78
2022/10/08 12:46:28;;;;;;;;;;;22.40;99.90;;;;;;5077859;28;19977;-78
2022/10/08 12:49:02;;;;;;;;;;;22.50;99.90;;;;;;5060073;28;20341;-79
2022/10/08 12:51:49;;;;;;;;;;;;;;;;;;;;;
2022/10/08 12:54:22;;;;;;;;;;;22.40;99.90;;;;;;5098382;28;19912;-79
2022/10/08 12:56:51;;;;;;;;;;;22.30;99.90;;;;;;5098118;28;19967;-79
2022/10/08 12:59:19;;;;;;;;;;;22.40;99.90;;;;;;5098425;28;19916;-78
2022/10/08 13:01:45;;;;;;;;;;;22.30;99.90;;;;;;5083199;28;19928;-78
2022/10/08 13:04:17;;;;;;;;;;;22.30;99.90;;;;;;5077717;28;19913;-78
2022/10/08 13:06:44;;;;;;;;;;;22.30;99.90;;;;;;5072390;28;20414;-79
2022/10/08 13:09:30;;;;;;;;;;;22.20;99.90;;;;;;5074188;28;19921;-79
2022/10/08 13:11:57;;;;;;;;;;;22.20;99.90;;;;;;5088246;28;20014;-80
2022/10/08 13:14:24;;;;;;;;;;;22.10;99.90;;;;;;5097416;28;19913;-80
2022/10/08 13:16:54;;;;;;;;;;;22.00;99.90;;;;;;5094479;28;19904;-80
2022/10/08 13:19:41;;;;;;;;;;;21.90;99.90;;;;;;5099000;28;19909;-80
2022/10/08 13:22:22;;;;;;;;;;;22.00;99.90;;;;;;5080568;28;20358;-79
2022/10/08 13:24:56;;;;;;;;;;;21.90;99.90;;;;;;5082847;28;19916;-80
2022/10/08 13:27:26;;;;;;;;;;;21.90;99.90;;;;;;5080319;28;20692;-80
2022/10/08 13:29:52;;;;;;;;;;;21.90;99.90;;;;;;5065525;28;19980;-81
2022/10/08 13:32:21;;;;;;;;;;;22.00;99.90;;;;;;5062406;28;19920;-79
2022/10/08 13:34:49;;;;;;;;;;;21.90;99.90;;;;;;5075722;28;19920;-80
2022/10/08 13:37:29;;;;;;;;;;;21.90;99.90;;;;;;5053037;28;19966;-80
2022/10/08 13:39:59;;;;;;;;;;;22.00;99.90;;;;;;5078482;28;20030;-81
2022/10/08 13:42:48;;;;;;;;;;;21.80;99.90;;;;;;5068079;28;20313;-79
2022/10/08 13:45:25;;;;;;;;;;;21.70;99.90;;;;;;5061836;28;19920;-79
2022/10/08 13:48:20;;;;;;;;;;;21.70;99.90;;;;;;5079149;28;19913;-76
2022/10/08 13:50:50;;;;;;;;;;;21.70;99.90;;;;;;5070664;28;19912;-76
2022/10/08 13:53:46;;;;;;;;;;;;;;;;;;;;;
2022/10/08 13:56:12;;;;;;;;;;;21.70;99.90;;;;;;5075884;28;19967;-75
2022/10/08 13:58:40;;;;;;;;;;;21.70;99.90;;;;;;5077773;28;19966;-75
2022/10/08 14:01:06;;;;;;;;;;;21.80;99.90;;;;;;5073853;28;20431;-75
2022/10/08 14:03:31;;;;;;;;;;;21.80;99.90;;;;;;5072298;28;19921;-74
2022/10/08 14:05:57;;;;;;;;;;;21.80;99.90;;;;;;5076249;28;19916;-76
2022/10/08 14:08:28;;;;;;;;;;;21.90;99.90;;;;;;5073785;28;19923;-76
2022/10/08 14:10:57;;;;;;;;;;;21.90;99.90;;;;;;5073448;28;20019;-76
2022/10/08 14:13:49;;;;;;;;;;;;;;;;;;;;;
2022/10/08 14:16:23;;;;;;;;;;;21.70;99.90;;;;;;5065922;28;19913;-76
2022/10/08 14:18:57;;;;;;;;;;;21.60;99.90;;;;;;5074559;28;19912;-76
2022/10/08 14:21:23;;;;;;;;;;;21.60;99.90;;;;;;5074437;28;20475;-76
2022/10/08 14:23:51;;;;;;;;;;;21.60;99.90;;;;;;5074115;28;19912;-75
2022/10/08 14:26:20;;;;;;;;;;;21.50;99.90;;;;;;5067562;28;19970;-76
2022/10/08 14:28:49;;;;;;;;;;;21.50;99.90;;;;;;5075051;28;19913;-77
2022/10/08 14:31:15;;;;;;;;;;;21.50;99.90;;;;;;5049933;28;19916;-77
2022/10/08 14:34:08;;;;;;;;;;;21.50;99.90;;;;;;5073864;28;20176;-76
2022/10/08 14:36:54;;;;;;;;;;;21.30;99.90;;;;;;5063965;28;19954;-76
2022/10/08 14:39:22;;;;;;;;;;;21.20;99.90;;;;;;5068488;28;19923;-76
2022/10/08 14:42:09;;;;;;;;;;;21.10;99.90;;;;;;5074395;28;20301;-75
2022/10/08 14:44:34;;;;;;;;;;;21.00;99.90;;;;;;5068528;28;20293;-76
2022/10/08 14:47:05;;;;;;;;;;;21.10;99.90;;;;;;5072890;28;19923;-76
2022/10/08 14:49:30;;;;;;;;;;;21.10;99.90;;;;;;5056839;28;19924;-75
2022/10/08 14:51:56;;;;;;;;;;;21.10;99.90;;;;;;5071287;28;20370;-77
2022/10/08 14:54:22;;;;;;;;;;;21.10;99.90;;;;;;5075991;28;19920;-76
2022/10/08 14:56:57;;;;;;;;;;;21.00;99.90;;;;;;5072043;28;19912;-76
2022/10/08 14:59:23;;;;;;;;;;;21.00;99.90;;;;;;5069239;28;20278;-77
2022/10/08 15:01:52;;;;;;;;;;;21.20;99.90;;;;;;5056806;28;20022;-77
2022/10/08 15:04:46;;;;;;;;;;;21.20;99.90;;;;;;5067606;28;19944;-76
2022/10/08 15:08:05;;;;;;;;;;;21.20;99.90;;;;;;5081720;28;19919;-76
2022/10/08 15:10:12;;;;;;;;;;;21.20;99.90;;;;;;5063670;28;20003;-75
2022/10/08 15:15:31;;;;;;;;;;;21.10;99.90;;;;;;5070915;28;20329;-74
2022/10/08 15:18:17;;;;;;;;;;;21.00;99.90;;;;;;5075582;28;19912;-74
2022/10/08 15:21:15;;;;;;;;;;;;;;;;;;;;;
2022/10/08 15:23:57;;;;;;;;;;;21.10;99.90;;;;;;5068448;28;20371;-74
2022/10/08 15:26:29;;;;;;;;;;;21.10;99.90;;;;;;5067565;28;19982;-74
2022/10/08 15:29:03;;;;;;;;;;;21.20;99.90;;;;;;5074889;28;19912;-73
2022/10/08 15:31:28;;;;;;;;;;;21.20;99.90;;;;;;5066629;28;20361;-74
2022/10/08 15:34:00;;;;;;;;;;;21.20;99.90;;;;;;5080703;28;19908;-74
2022/10/08 15:36:30;;;;;;;;;;;21.20;99.90;;;;;;5079935;28;19948;-74
2022/10/08 15:39:02;;;;;;;;;;;21.30;99.90;;;;;;5077611;28;19924;-75
2022/10/08 15:41:52;;;;;;;;;;;21.30;99.90;;;;;;5078203;28;19981;-75
2022/10/08 15:44:17;;;;;;;;;;;21.40;99.90;;;;;;5049236;28;19963;-75
2022/10/08 15:47:00;;;;;;;;;;;21.40;99.90;;;;;;5078077;28;19920;-76
2022/10/08 15:52:33;;;;;;;;;;;21.20;99.90;;;;;;5077387;28;19909;-75
2022/10/08 15:55:02;;;;;;;;;;;21.10;99.90;;;;;;5077805;28;19948;-75
2022/10/08 15:57:33;;;;;;;;;;;21.00;99.90;;;;;;5078405;28;19966;-75
2022/10/08 16:00:08;;;;;;;;;;;20.90;99.90;;;;;;5078456;28;19916;-76
2022/10/08 16:03:25;;;;;;;;;;;20.90;99.90;;;;;;5078032;28;19951;-76